EWG48K EDDH-LFMN
Flight info
| Callsign | EWG48K |
|---|---|
| Flight time | 1h 49m |
| Altitude | 36000 |
| Route | IDEKO8B IDEKO N850 XAROL DCT BOMBI DCT GIGET DCT ABUKA DCT KRH DCT NATOR DCT TRA DCT RIPUS DCT GERSA DCT SOSON DCT ODINA DCT ENOBA Z185 BORDI |
| Aircraft | A320/M-SDE3FGHIRWY/LB1 |
Departure
| Time | 2026-05-04 06:58 |
|---|---|
| Airport | Hamburg Helmut Schmidt Airport (EDDH) |
Arrival
| Time | 2026-05-04 08:48 |
|---|---|
| Airport | Nice-Côte d'Azur Airport (LFMN) |
| Time | Latitude | Longitude | Altitude | Speed | Heading |
|---|---|---|---|---|---|
| 2026-05-04 06:37 | 53.62885 | 10.00231 | 49 ft | 0 kts | 124° |
| 2026-05-04 06:50 | 53.62885 | 10.00230 | 48 ft | 0 kts | 122° |
| 2026-05-04 06:52 | 53.62886 | 10.00229 | 48 ft | 1 kts | 122° |
| 2026-05-04 06:52 | 53.62899 | 10.00195 | 45 ft | 4 kts | 122° |
| 2026-05-04 06:52 | 53.62910 | 10.00164 | 45 ft | 4 kts | 124° |
| 2026-05-04 06:53 | 53.62927 | 10.00132 | 44 ft | 4 kts | 157° |
| 2026-05-04 06:53 | 53.62946 | 10.00131 | 43 ft | 1 kts | 212° |
| 2026-05-04 06:56 | 53.62945 | 10.00130 | 46 ft | 1 kts | 213° |
| 2026-05-04 06:57 | 53.63063 | 9.99574 | 46 ft | 68 kts | 332° |
| 2026-05-04 06:58 | 53.63659 | 9.99060 | 48 ft | 122 kts | 333° |
| 2026-05-04 06:58 | 53.64552 | 9.98287 | 56 ft | 164 kts | 330° |
| 2026-05-04 06:58 | 53.65576 | 9.97403 | 537 ft | 168 kts | 330° |
| 2026-05-04 06:58 | 53.66616 | 9.96528 | 1279 ft | 166 kts | 331° |
| 2026-05-04 06:59 | 53.67654 | 9.95650 | 1867 ft | 176 kts | 331° |
| 2026-05-04 06:59 | 53.68814 | 9.94660 | 2173 ft | 197 kts | 331° |
| 2026-05-04 06:59 | 53.70081 | 9.93562 | 2640 ft | 207 kts | 330° |
| 2026-05-04 06:59 | 53.71238 | 9.92141 | 3221 ft | 210 kts | 306° |
| 2026-05-04 07:01 | 53.63504 | 9.81758 | 8263 ft | 271 kts | 198° |
| 2026-05-04 07:01 | 53.61665 | 9.80967 | 9104 ft | 274 kts | 199° |
| 2026-05-04 07:02 | 53.59807 | 9.80151 | 9921 ft | 277 kts | 199° |
| 2026-05-04 07:02 | 53.57909 | 9.79306 | 10418 ft | 291 kts | 199° |
| 2026-05-04 07:02 | 53.55882 | 9.78387 | 10619 ft | 313 kts | 199° |
| 2026-05-04 07:02 | 53.53741 | 9.77413 | 11099 ft | 322 kts | 199° |
| 2026-05-04 07:03 | 53.51565 | 9.76433 | 11772 ft | 326 kts | 199° |
| 2026-05-04 07:03 | 53.49393 | 9.75463 | 12464 ft | 328 kts | 199° |
| 2026-05-04 07:03 | 53.47182 | 9.74477 | 13180 ft | 330 kts | 199° |
| 2026-05-04 07:03 | 53.44949 | 9.73478 | 13884 ft | 333 kts | 199° |
| 2026-05-04 07:04 | 53.42711 | 9.72474 | 14511 ft | 335 kts | 199° |
| 2026-05-04 07:04 | 53.40449 | 9.71462 | 15138 ft | 337 kts | 199° |
| 2026-05-04 07:04 | 53.38171 | 9.70444 | 15746 ft | 339 kts | 199° |
| 2026-05-04 07:04 | 53.35885 | 9.69418 | 16353 ft | 341 kts | 199° |
| 2026-05-04 07:05 | 53.33584 | 9.68382 | 16964 ft | 343 kts | 199° |
| 2026-05-04 07:05 | 53.31264 | 9.67342 | 17582 ft | 345 kts | 199° |
| 2026-05-04 07:05 | 53.28934 | 9.66307 | 18204 ft | 348 kts | 199° |
| 2026-05-04 07:05 | 53.26585 | 9.65267 | 18765 ft | 350 kts | 199° |
| 2026-05-04 07:06 | 53.21862 | 9.63181 | 19940 ft | 353 kts | 200° |
| 2026-05-04 07:06 | 53.19512 | 9.62138 | 20527 ft | 354 kts | 200° |
| 2026-05-04 07:06 | 53.17120 | 9.61075 | 21092 ft | 356 kts | 200° |
| 2026-05-04 07:07 | 53.14722 | 9.60011 | 21638 ft | 358 kts | 200° |
| 2026-05-04 07:08 | 52.97522 | 9.52414 | 24877 ft | 375 kts | 200° |
| 2026-05-04 07:09 | 52.94986 | 9.51303 | 25238 ft | 378 kts | 200° |
| 2026-05-04 07:09 | 52.92430 | 9.50189 | 25609 ft | 381 kts | 200° |
| 2026-05-04 07:09 | 52.89856 | 9.49065 | 25966 ft | 384 kts | 200° |
| 2026-05-04 07:09 | 52.87264 | 9.47932 | 26320 ft | 387 kts | 200° |
| 2026-05-04 07:10 | 52.84654 | 9.46793 | 26660 ft | 390 kts | 200° |
| 2026-05-04 07:10 | 52.82018 | 9.45644 | 27012 ft | 392 kts | 200° |
| 2026-05-04 07:12 | 52.64032 | 9.37837 | 29190 ft | 410 kts | 200° |
| 2026-05-04 07:12 | 52.61226 | 9.36845 | 29502 ft | 417 kts | 195° |
| 2026-05-04 07:12 | 52.58351 | 9.36093 | 29816 ft | 420 kts | 195° |
| 2026-05-04 07:12 | 52.55450 | 9.35334 | 30116 ft | 422 kts | 195° |
| 2026-05-04 07:13 | 52.52550 | 9.34576 | 30518 ft | 421 kts | 194° |
| 2026-05-04 07:13 | 52.49665 | 9.33828 | 30984 ft | 418 kts | 194° |
| 2026-05-04 07:13 | 52.46802 | 9.33087 | 31466 ft | 415 kts | 194° |
| 2026-05-04 07:14 | 52.35592 | 9.30159 | 33405 ft | 403 kts | 193° |
| 2026-05-04 07:14 | 52.32826 | 9.29439 | 33882 ft | 401 kts | 193° |
| 2026-05-04 07:15 | 52.30084 | 9.28724 | 34273 ft | 399 kts | 193° |
| 2026-05-04 07:15 | 52.27333 | 9.28007 | 34572 ft | 399 kts | 193° |
| 2026-05-04 07:15 | 52.24586 | 9.27289 | 34834 ft | 400 kts | 193° |
| 2026-05-04 07:15 | 52.21828 | 9.26594 | 35080 ft | 401 kts | 192° |
| 2026-05-04 07:16 | 52.19048 | 9.26013 | 35338 ft | 403 kts | 191° |
| 2026-05-04 07:16 | 52.16289 | 9.25521 | 35589 ft | 404 kts | 190° |
| 2026-05-04 07:16 | 52.13485 | 9.25062 | 35833 ft | 405 kts | 190° |
| 2026-05-04 07:16 | 52.10679 | 9.24609 | 35950 ft | 407 kts | 190° |
| 2026-05-04 07:17 | 52.04991 | 9.23636 | 35979 ft | 411 kts | 191° |
| 2026-05-04 07:17 | 51.99330 | 9.22297 | 35982 ft | 411 kts | 194° |
| 2026-05-04 07:18 | 51.93737 | 9.20718 | 35985 ft | 410 kts | 194° |
| 2026-05-04 07:18 | 51.88094 | 9.19176 | 35989 ft | 411 kts | 193° |
| 2026-05-04 07:19 | 51.82423 | 9.17863 | 35991 ft | 412 kts | 192° |
| 2026-05-04 07:19 | 51.76728 | 9.16700 | 35993 ft | 412 kts | 191° |
| 2026-05-04 07:20 | 51.71073 | 9.15525 | 36002 ft | 412 kts | 192° |
| 2026-05-04 07:20 | 51.65393 | 9.14300 | 36009 ft | 412 kts | 192° |
| 2026-05-04 07:22 | 51.42809 | 9.08656 | 36027 ft | 408 kts | 197° |
| 2026-05-04 07:23 | 51.37277 | 9.06607 | 36026 ft | 408 kts | 196° |
| 2026-05-04 07:23 | 51.31753 | 9.04654 | 36019 ft | 409 kts | 195° |
| 2026-05-04 07:24 | 51.26103 | 9.03230 | 36010 ft | 411 kts | 191° |
| 2026-05-04 07:24 | 51.20405 | 9.02246 | 36011 ft | 412 kts | 190° |
| 2026-05-04 07:26 | 50.97659 | 8.98052 | 36003 ft | 413 kts | 188° |
| 2026-05-04 07:27 | 50.91897 | 8.97680 | 36003 ft | 415 kts | 186° |
| 2026-05-04 07:27 | 50.86158 | 8.97434 | 36003 ft | 415 kts | 186° |
| 2026-05-04 07:28 | 50.80385 | 8.97071 | 36006 ft | 414 kts | 187° |
| 2026-05-04 07:28 | 50.74613 | 8.96643 | 36012 ft | 415 kts | 187° |
| 2026-05-04 07:29 | 50.68880 | 8.96217 | 36009 ft | 415 kts | 187° |
| 2026-05-04 07:29 | 50.63110 | 8.95808 | 36018 ft | 415 kts | 187° |
| 2026-05-04 07:30 | 50.57333 | 8.95413 | 36024 ft | 415 kts | 187° |
| 2026-05-04 07:30 | 50.51587 | 8.95006 | 36026 ft | 415 kts | 187° |
| 2026-05-04 07:31 | 50.45828 | 8.94595 | 36034 ft | 414 kts | 187° |
| 2026-05-04 07:33 | 50.22810 | 8.92984 | 36045 ft | 414 kts | 187° |
| 2026-05-04 07:33 | 50.17054 | 8.92587 | 36042 ft | 414 kts | 186° |
| 2026-05-04 07:34 | 50.11300 | 8.92191 | 36038 ft | 414 kts | 186° |
| 2026-05-04 07:34 | 50.05536 | 8.91791 | 36021 ft | 413 kts | 186° |
| 2026-05-04 07:35 | 49.99788 | 8.91389 | 36033 ft | 414 kts | 186° |
| 2026-05-04 07:35 | 49.94022 | 8.90989 | 36028 ft | 414 kts | 186° |
| 2026-05-04 07:36 | 49.88290 | 8.90594 | 36027 ft | 414 kts | 186° |
| 2026-05-04 07:38 | 49.65312 | 8.89019 | 36025 ft | 415 kts | 186° |
| 2026-05-04 07:38 | 49.59527 | 8.88635 | 36027 ft | 416 kts | 186° |
| 2026-05-04 07:39 | 49.53737 | 8.88235 | 36030 ft | 416 kts | 186° |
| 2026-05-04 07:39 | 49.47984 | 8.87838 | 36030 ft | 416 kts | 186° |
| 2026-05-04 07:40 | 49.42187 | 8.87458 | 36031 ft | 416 kts | 186° |
| 2026-05-04 07:40 | 49.36404 | 8.87067 | 36034 ft | 416 kts | 186° |
| 2026-05-04 07:41 | 49.30612 | 8.86670 | 36033 ft | 416 kts | 186° |
| 2026-05-04 07:41 | 49.24821 | 8.86284 | 36035 ft | 416 kts | 186° |
| 2026-05-04 07:42 | 49.19058 | 8.85908 | 36037 ft | 416 kts | 186° |
| 2026-05-04 07:42 | 49.13264 | 8.85519 | 36039 ft | 416 kts | 186° |
| 2026-05-04 07:43 | 49.07501 | 8.85128 | 36040 ft | 416 kts | 186° |
| 2026-05-04 07:43 | 49.01717 | 8.84746 | 36039 ft | 416 kts | 186° |
| 2026-05-04 07:44 | 48.95927 | 8.84366 | 36036 ft | 416 kts | 186° |
| 2026-05-04 07:44 | 48.90124 | 8.83990 | 36036 ft | 416 kts | 186° |
| 2026-05-04 07:45 | 48.84340 | 8.83604 | 36034 ft | 416 kts | 186° |
| 2026-05-04 07:45 | 48.78579 | 8.83220 | 36032 ft | 416 kts | 186° |
| 2026-05-04 07:46 | 48.72787 | 8.82845 | 36029 ft | 416 kts | 186° |
| 2026-05-04 07:46 | 48.66981 | 8.82472 | 36030 ft | 416 kts | 186° |
| 2026-05-04 07:47 | 48.61218 | 8.82096 | 36032 ft | 416 kts | 186° |
| 2026-05-04 07:49 | 48.38086 | 8.80588 | 36040 ft | 416 kts | 186° |
| 2026-05-04 07:49 | 48.32296 | 8.80219 | 36038 ft | 416 kts | 186° |
| 2026-05-04 07:50 | 48.26511 | 8.79843 | 36041 ft | 415 kts | 186° |
| 2026-05-04 07:50 | 48.20736 | 8.79472 | 36040 ft | 415 kts | 186° |
| 2026-05-04 07:51 | 48.14959 | 8.79097 | 36037 ft | 415 kts | 186° |
| 2026-05-04 07:51 | 48.09212 | 8.78723 | 36036 ft | 415 kts | 186° |
| 2026-05-04 07:52 | 48.03424 | 8.78351 | 36038 ft | 415 kts | 186° |
| 2026-05-04 07:52 | 47.97686 | 8.77987 | 36039 ft | 415 kts | 186° |
| 2026-05-04 07:54 | 47.74569 | 8.76523 | 36042 ft | 415 kts | 186° |
| 2026-05-04 07:55 | 47.68824 | 8.76168 | 36042 ft | 416 kts | 186° |
| 2026-05-04 07:55 | 47.63044 | 8.75808 | 36041 ft | 416 kts | 186° |
| 2026-05-04 07:56 | 47.57265 | 8.75439 | 36042 ft | 416 kts | 186° |
| 2026-05-04 07:56 | 47.51475 | 8.75077 | 36055 ft | 416 kts | 186° |
| 2026-05-04 07:57 | 47.45731 | 8.74719 | 36053 ft | 416 kts | 186° |
| 2026-05-04 07:57 | 47.39948 | 8.74358 | 36056 ft | 416 kts | 186° |
| 2026-05-04 07:58 | 47.34162 | 8.74002 | 36056 ft | 416 kts | 186° |
| 2026-05-04 07:58 | 47.28376 | 8.73644 | 36055 ft | 416 kts | 186° |
| 2026-05-04 07:59 | 47.22621 | 8.73292 | 36056 ft | 416 kts | 186° |
| 2026-05-04 07:59 | 47.16834 | 8.72933 | 36052 ft | 416 kts | 186° |
| 2026-05-04 08:00 | 47.11036 | 8.72569 | 36054 ft | 416 kts | 186° |
| 2026-05-04 08:02 | 46.87891 | 8.71153 | 36065 ft | 417 kts | 185° |
| 2026-05-04 08:02 | 46.82081 | 8.70795 | 36070 ft | 417 kts | 185° |
| 2026-05-04 08:03 | 46.76302 | 8.70442 | 36077 ft | 418 kts | 185° |
| 2026-05-04 08:03 | 46.70482 | 8.70082 | 36086 ft | 418 kts | 185° |
| 2026-05-04 08:04 | 46.64668 | 8.69731 | 36113 ft | 418 kts | 185° |
| 2026-05-04 08:04 | 46.58846 | 8.69388 | 36124 ft | 419 kts | 185° |
| 2026-05-04 08:05 | 46.53016 | 8.69043 | 36132 ft | 419 kts | 185° |
| 2026-05-04 08:05 | 46.47223 | 8.68689 | 36133 ft | 419 kts | 185° |
| 2026-05-04 08:06 | 46.41385 | 8.68325 | 36131 ft | 420 kts | 185° |
| 2026-05-04 08:06 | 46.36528 | 8.68033 | 36124 ft | 420 kts | 185° |
| 2026-05-04 08:08 | 46.16222 | 8.65355 | 36136 ft | 417 kts | 199° |
| 2026-05-04 08:08 | 46.13440 | 8.64146 | 36127 ft | 417 kts | 199° |
| 2026-05-04 08:11 | 45.88319 | 8.53179 | 36151 ft | 420 kts | 199° |
| 2026-05-04 08:11 | 45.79928 | 8.49549 | 36153 ft | 420 kts | 199° |
| 2026-05-04 08:12 | 45.74341 | 8.47134 | 36152 ft | 420 kts | 199° |
| 2026-05-04 08:12 | 45.68746 | 8.44722 | 36152 ft | 419 kts | 199° |
| 2026-05-04 08:13 | 45.63183 | 8.42328 | 36151 ft | 419 kts | 199° |
| 2026-05-04 08:13 | 45.57584 | 8.39929 | 36152 ft | 419 kts | 199° |
| 2026-05-04 08:14 | 45.51982 | 8.37525 | 36149 ft | 419 kts | 199° |
| 2026-05-04 08:16 | 45.29648 | 8.28010 | 36137 ft | 420 kts | 199° |
| 2026-05-04 08:16 | 45.24080 | 8.25649 | 36137 ft | 419 kts | 199° |
| 2026-05-04 08:17 | 45.18482 | 8.23276 | 36143 ft | 419 kts | 199° |
| 2026-05-04 08:17 | 45.12893 | 8.20914 | 36144 ft | 419 kts | 199° |
| 2026-05-04 08:19 | 44.93363 | 8.12718 | 32997 ft | 404 kts | 198° |
| 2026-05-04 08:19 | 44.90708 | 8.11608 | 32536 ft | 400 kts | 198° |
| 2026-05-04 08:20 | 44.88053 | 8.10497 | 32074 ft | 396 kts | 198° |
| 2026-05-04 08:20 | 44.85423 | 8.09397 | 31617 ft | 393 kts | 198° |
| 2026-05-04 08:20 | 44.82804 | 8.08305 | 31161 ft | 390 kts | 198° |
| 2026-05-04 08:20 | 44.80207 | 8.07220 | 30711 ft | 387 kts | 198° |
| 2026-05-04 08:21 | 44.77634 | 8.06144 | 30148 ft | 387 kts | 198° |
| 2026-05-04 08:21 | 44.75053 | 8.05065 | 29645 ft | 384 kts | 198° |
| 2026-05-04 08:21 | 44.72536 | 8.04016 | 29214 ft | 380 kts | 198° |
| 2026-05-04 08:21 | 44.70008 | 8.02965 | 28799 ft | 377 kts | 198° |
| 2026-05-04 08:22 | 44.67504 | 8.01930 | 28388 ft | 374 kts | 198° |
| 2026-05-04 08:22 | 44.65012 | 8.00900 | 27970 ft | 371 kts | 198° |
| 2026-05-04 08:24 | 44.48015 | 7.93876 | 25281 ft | 357 kts | 197° |
| 2026-05-04 08:24 | 44.45639 | 7.92900 | 24894 ft | 355 kts | 197° |
| 2026-05-04 08:24 | 44.43308 | 7.91940 | 24508 ft | 353 kts | 197° |
| 2026-05-04 08:24 | 44.40952 | 7.90970 | 24119 ft | 352 kts | 197° |
| 2026-05-04 08:25 | 44.38601 | 7.90004 | 23716 ft | 351 kts | 197° |
| 2026-05-04 08:25 | 44.36262 | 7.89044 | 23263 ft | 349 kts | 197° |
| 2026-05-04 08:25 | 44.33950 | 7.88094 | 22864 ft | 345 kts | 197° |
| 2026-05-04 08:25 | 44.31655 | 7.87155 | 22448 ft | 342 kts | 197° |
| 2026-05-04 08:26 | 44.29382 | 7.86227 | 22041 ft | 339 kts | 197° |
| 2026-05-04 08:27 | 44.13802 | 7.79862 | 19192 ft | 329 kts | 197° |
| 2026-05-04 08:28 | 44.11602 | 7.78965 | 18783 ft | 328 kts | 197° |
| 2026-05-04 08:28 | 44.09405 | 7.78071 | 18359 ft | 328 kts | 197° |
| 2026-05-04 08:28 | 44.07219 | 7.77186 | 17917 ft | 326 kts | 197° |
| 2026-05-04 08:28 | 44.05081 | 7.76319 | 17517 ft | 324 kts | 197° |
| 2026-05-04 08:29 | 44.02921 | 7.75441 | 17105 ft | 322 kts | 198° |
| 2026-05-04 08:29 | 44.00847 | 7.74308 | 16787 ft | 318 kts | 204° |
| 2026-05-04 08:29 | 43.98806 | 7.73067 | 16536 ft | 320 kts | 204° |
| 2026-05-04 08:31 | 43.84718 | 7.64593 | 14680 ft | 311 kts | 204° |
| 2026-05-04 08:33 | 43.73441 | 7.57843 | 13184 ft | 303 kts | 203° |
| 2026-05-04 08:33 | 43.71506 | 7.56676 | 12936 ft | 302 kts | 203° |
| 2026-05-04 08:35 | 43.59364 | 7.46090 | 11209 ft | 291 kts | 214° |
| 2026-05-04 08:35 | 43.57714 | 7.44472 | 10962 ft | 290 kts | 214° |
| 2026-05-04 08:35 | 43.56074 | 7.42867 | 10726 ft | 288 kts | 214° |
| 2026-05-04 08:35 | 43.54439 | 7.41269 | 10484 ft | 287 kts | 214° |
| 2026-05-04 08:37 | 43.45081 | 7.32125 | 9167 ft | 268 kts | 213° |
| 2026-05-04 08:37 | 43.43565 | 7.30625 | 8921 ft | 269 kts | 218° |
| 2026-05-04 08:37 | 43.42302 | 7.28727 | 8676 ft | 271 kts | 234° |
| 2026-05-04 08:38 | 43.41489 | 7.26379 | 8411 ft | 275 kts | 250° |
| 2026-05-04 08:38 | 43.41160 | 7.23769 | 8127 ft | 279 kts | 260° |
| 2026-05-04 08:38 | 43.40936 | 7.21124 | 7859 ft | 278 kts | 259° |
| 2026-05-04 08:40 | 43.39299 | 7.02715 | 5956 ft | 276 kts | 259° |
| 2026-05-04 08:40 | 43.39328 | 7.00072 | 5677 ft | 280 kts | 282° |
| 2026-05-04 08:40 | 43.40193 | 6.97703 | 5488 ft | 277 kts | 310° |
| 2026-05-04 08:41 | 43.41689 | 6.96144 | 5364 ft | 265 kts | 338° |
| 2026-05-04 08:41 | 43.43382 | 6.95629 | 5252 ft | 245 kts | 1° |
| 2026-05-04 08:41 | 43.45057 | 6.95588 | 5109 ft | 236 kts | 2° |
| 2026-05-04 08:41 | 43.46632 | 6.95892 | 4995 ft | 222 kts | 23° |
| 2026-05-04 08:42 | 43.47960 | 6.96860 | 4745 ft | 214 kts | 43° |
| 2026-05-04 08:42 | 43.49030 | 6.98269 | 4427 ft | 212 kts | 49° |
| 2026-05-04 08:42 | 43.50072 | 6.99705 | 4133 ft | 212 kts | 48° |
| 2026-05-04 08:42 | 43.51120 | 7.01140 | 3843 ft | 211 kts | 47° |
| 2026-05-04 08:43 | 43.52157 | 7.02559 | 3561 ft | 209 kts | 47° |
| 2026-05-04 08:43 | 43.53166 | 7.03940 | 3285 ft | 199 kts | 46° |
| 2026-05-04 08:43 | 43.54121 | 7.05241 | 3061 ft | 186 kts | 46° |
| 2026-05-04 08:43 | 43.55013 | 7.06454 | 2798 ft | 175 kts | 46° |
| 2026-05-04 08:44 | 43.55858 | 7.07611 | 2553 ft | 168 kts | 46° |
| 2026-05-04 08:44 | 43.56671 | 7.08724 | 2347 ft | 166 kts | 46° |
| 2026-05-04 08:46 | 43.61944 | 7.15944 | 912 ft | 134 kts | 45° |
| 2026-05-04 08:46 | 43.62602 | 7.16851 | 792 ft | 134 kts | 46° |
| 2026-05-04 08:46 | 43.63270 | 7.17747 | 605 ft | 135 kts | 45° |
| 2026-05-04 08:46 | 43.63927 | 7.18655 | 438 ft | 132 kts | 46° |
| 2026-05-04 08:47 | 43.64582 | 7.19567 | 243 ft | 134 kts | 45° |
| 2026-05-04 08:47 | 43.65233 | 7.20467 | 85 ft | 132 kts | 45° |
| 2026-05-04 08:47 | 43.65842 | 7.21312 | 22 ft | 109 kts | 45° |
| 2026-05-04 08:47 | 43.66255 | 7.21877 | 22 ft | 50 kts | 43° |
| 2026-05-04 08:48 | 43.66462 | 7.22033 | 21 ft | 24 kts | 18° |
| 2026-05-04 08:48 | 43.66577 | 7.22020 | 21 ft | 17 kts | 314° |
| 2026-05-04 08:48 | 43.66643 | 7.21906 | 22 ft | 15 kts | 300° |
| 2026-05-04 08:48 | 43.66605 | 7.21797 | 21 ft | 17 kts | 224° |
| 2026-05-04 08:49 | 43.66529 | 7.21690 | 21 ft | 15 kts | 226° |
| 2026-05-04 08:50 | 43.66536 | 7.21574 | 21 ft | 0 kts | 315° |